createdAt,value
2023-05-07T00:02:10.797Z,77.02
2023-05-07T00:04:39.886Z,77.49
2023-05-07T00:07:08.103Z,76.97
2023-05-07T00:09:36.187Z,76.76
2023-05-07T00:12:04.572Z,76.72
2023-05-07T00:14:32.824Z,77.07
2023-05-07T00:17:00.954Z,76.93
2023-05-07T00:19:30.501Z,76.30
2023-05-07T00:21:59.192Z,77.08
2023-05-07T00:24:27.509Z,77.53
2023-05-07T00:26:55.665Z,77.67
2023-05-07T00:29:23.756Z,77.82
2023-05-07T00:31:52.208Z,77.08
2023-05-07T00:34:21.702Z,76.40
2023-05-07T00:36:51.311Z,76.93
2023-05-07T00:39:19.451Z,77.14
2023-05-07T00:41:48.229Z,76.76
2023-05-07T00:44:16.445Z,76.56
2023-05-07T00:46:45.820Z,77.08
2023-05-07T00:49:14.231Z,77.44
2023-05-07T00:51:42.415Z,76.20
2023-05-07T00:54:12.985Z,77.26
2023-05-07T00:56:41.913Z,76.67
2023-05-07T00:59:10.653Z,76.78
2023-05-07T01:01:38.878Z,76.75
2023-05-07T01:04:07.064Z,76.71
2023-05-07T01:06:36.115Z,76.81
2023-05-07T01:09:05.740Z,76.17
2023-05-07T01:11:35.728Z,76.01
2023-05-07T01:14:04.518Z,77.28
2023-05-07T01:16:33.925Z,76.61
2023-05-07T01:19:03.302Z,76.84
2023-05-07T01:21:36.182Z,76.65
2023-05-07T01:24:06.681Z,75.96
2023-05-07T01:26:35.149Z,76.00
2023-05-07T01:29:03.291Z,75.76
2023-05-07T01:31:31.902Z,76.26
2023-05-07T01:34:04.060Z,76.74
2023-05-07T01:36:33.671Z,76.56
2023-05-07T01:39:02.519Z,76.76
2023-05-07T01:41:32.142Z,77.18
2023-05-07T01:44:01.873Z,76.86
2023-05-07T01:46:30.890Z,76.44
2023-05-07T01:48:59.189Z,75.83
2023-05-07T01:51:28.097Z,76.05
2023-05-07T01:53:56.424Z,76.60
2023-05-07T01:56:25.374Z,77.00
2023-05-07T01:58:54.974Z,77.35
2023-05-07T02:01:23.178Z,76.44
2023-05-07T02:03:51.872Z,76.56
2023-05-07T02:06:20.346Z,76.29
2023-05-07T02:08:49.211Z,76.34
2023-05-07T02:11:17.316Z,77.21
2023-05-07T02:13:45.906Z,76.99
2023-05-07T02:16:15.702Z,76.78
2023-05-07T02:18:43.891Z,77.12
2023-05-07T02:21:11.995Z,77.70
2023-05-07T02:23:40.089Z,77.48
2023-05-07T02:26:08.357Z,75.84
2023-05-07T02:28:37.205Z,76.39
2023-05-07T02:31:05.627Z,76.27
2023-05-07T02:33:35.827Z,76.72
2023-05-07T02:36:10.738Z,75.75
2023-05-07T02:38:40.542Z,76.40
2023-05-07T02:41:08.695Z,76.38
2023-05-07T02:43:36.853Z,76.55
2023-05-07T02:46:06.761Z,77.20
2023-05-07T02:48:37.178Z,76.71
2023-05-07T02:51:06.415Z,77.21
2023-05-07T02:53:34.849Z,76.66
2023-05-07T02:56:04.266Z,77.30
2023-05-07T02:58:32.436Z,76.41
2023-05-07T03:01:00.786Z,76.56
2023-05-07T03:03:29.033Z,76.88
2023-05-07T03:05:58.570Z,77.37
2023-05-07T03:08:27.110Z,77.40
2023-05-07T03:10:55.450Z,78.05
2023-05-07T03:13:23.738Z,77.64
2023-05-07T03:15:51.995Z,77.66
2023-05-07T03:18:20.208Z,77.60
2023-05-07T03:20:50.337Z,77.06
2023-05-07T03:23:19.907Z,77.09
2023-05-07T03:25:48.121Z,77.99
2023-05-07T03:28:16.223Z,77.19
2023-05-07T03:30:44.334Z,76.25
2023-05-07T03:33:12.442Z,76.00
2023-05-07T03:35:40.514Z,75.91
2023-05-07T03:38:09.480Z,76.86
2023-05-07T03:40:38.992Z,76.23
2023-05-07T03:43:07.164Z,76.35
2023-05-07T03:45:35.237Z,76.70
2023-05-07T03:48:03.442Z,77.83
2023-05-07T03:50:31.666Z,77.68
2023-05-07T03:52:59.802Z,77.38
2023-05-07T03:55:28.171Z,77.36
2023-05-07T03:57:57.614Z,76.57
2023-05-07T04:00:25.792Z,76.67
2023-05-07T04:02:53.971Z,77.56
2023-05-07T04:05:22.110Z,76.79
2023-05-07T04:07:50.209Z,76.78
2023-05-07T04:10:18.579Z,76.22
2023-05-07T04:12:46.712Z,77.00
2023-05-07T04:15:16.455Z,76.65
2023-05-07T04:17:44.776Z,77.50
2023-05-07T04:20:17.626Z,77.57
2023-05-07T04:22:45.920Z,76.95
2023-05-07T04:25:14.059Z,76.31
2023-05-07T04:27:42.145Z,76.06
2023-05-07T04:30:11.752Z,76.06
2023-05-07T04:32:41.599Z,75.81
2023-05-07T04:35:10.353Z,74.76
2023-05-07T04:37:38.440Z,74.80
2023-05-07T04:40:08.754Z,75.32
2023-05-07T04:42:36.929Z,76.15
2023-05-07T04:45:06.365Z,75.98
2023-05-07T04:47:34.536Z,76.26
2023-05-07T04:50:04.154Z,74.92
2023-05-07T04:52:32.241Z,74.84
2023-05-07T04:55:02.048Z,75.45
2023-05-07T04:57:30.156Z,75.72
2023-05-07T04:59:59.176Z,75.18
2023-05-07T05:02:27.335Z,74.70
2023-05-07T05:04:55.446Z,74.87
2023-05-07T05:07:24.925Z,74.12
2023-05-07T05:09:52.990Z,74.68
2023-05-07T05:12:21.237Z,74.89
2023-05-07T05:14:49.424Z,74.34
2023-05-07T05:17:17.560Z,74.21
2023-05-07T05:19:45.642Z,74.74
2023-05-07T05:22:13.759Z,75.33
2023-05-07T05:24:43.247Z,75.10
2023-05-07T05:27:11.408Z,74.19
2023-05-07T05:29:39.531Z,74.92
2023-05-07T05:32:07.732Z,74.89
2023-05-07T05:34:35.822Z,76.03
2023-05-07T05:37:04.061Z,75.93
2023-05-07T05:39:32.223Z,74.73
2023-05-07T05:42:01.713Z,74.35
2023-05-07T05:44:29.817Z,74.00
2023-05-07T05:47:00.133Z,73.01
2023-05-07T05:49:28.265Z,72.48
2023-05-07T05:51:56.753Z,72.24
2023-05-07T05:54:24.825Z,72.87
2023-05-07T05:56:52.961Z,72.53
2023-05-07T05:59:22.716Z,72.52
2023-05-07T06:01:51.034Z,70.93
2023-05-07T06:04:19.157Z,70.93
2023-05-07T06:06:47.220Z,70.92
2023-05-07T06:09:15.351Z,69.68
2023-05-07T06:11:43.487Z,69.85
2023-05-07T06:14:11.604Z,70.07
2023-05-07T06:16:41.206Z,70.10
2023-05-07T06:19:09.369Z,69.81
2023-05-07T06:21:37.478Z,69.15
2023-05-07T06:24:05.970Z,69.67
2023-05-07T06:26:34.093Z,70.34
2023-05-07T06:29:02.200Z,70.32
2023-05-07T06:31:33.803Z,70.30
2023-05-07T06:34:03.485Z,69.73
2023-05-07T06:36:31.674Z,69.50
2023-05-07T06:38:59.766Z,69.20
2023-05-07T06:41:27.905Z,69.44
2023-05-07T06:43:55.980Z,68.88
2023-05-07T06:46:24.490Z,69.37
2023-05-07T06:48:53.185Z,68.35
2023-05-07T06:51:22.748Z,67.25
2023-05-07T06:53:50.877Z,68.10
2023-05-07T06:56:19.008Z,67.18
2023-05-07T06:58:47.197Z,67.84
2023-05-07T07:01:16.120Z,67.38
2023-05-07T07:03:44.236Z,67.48
2023-05-07T07:06:12.344Z,68.28
2023-05-07T07:08:41.961Z,68.64
2023-05-07T07:11:11.971Z,68.05
2023-05-07T07:13:41.069Z,66.99
2023-05-07T07:16:09.296Z,66.56
2023-05-07T07:18:37.395Z,65.16
2023-05-07T07:21:05.969Z,65.30
2023-05-07T07:23:34.835Z,64.74
2023-05-07T07:26:04.373Z,63.57
2023-05-07T07:28:32.463Z,62.66
2023-05-07T07:31:00.674Z,62.07
2023-05-07T07:33:28.875Z,60.35
2023-05-07T07:35:57.964Z,59.71
2023-05-07T07:38:26.367Z,60.34
2023-05-07T07:40:54.449Z,60.25
2023-05-07T07:43:23.900Z,60.50
2023-05-07T07:45:52.114Z,60.00
2023-05-07T07:48:20.269Z,59.52
2023-05-07T07:50:52.054Z,59.68
2023-05-07T07:53:20.736Z,59.61
2023-05-07T07:55:48.863Z,60.07
2023-05-07T07:58:16.961Z,59.54
2023-05-07T08:00:46.486Z,60.30
2023-05-07T08:03:15.480Z,60.72
2023-05-07T08:05:43.732Z,61.92
2023-05-07T08:08:11.831Z,62.37
2023-05-07T08:10:40.248Z,62.15
2023-05-07T08:13:08.865Z,61.88
2023-05-07T08:15:37.276Z,61.86
2023-05-07T08:18:07.083Z,62.15
2023-05-07T08:20:40.199Z,62.63
2023-05-07T08:23:08.793Z,62.86
2023-05-07T08:25:38.416Z,61.89
2023-05-07T08:28:07.922Z,60.89
2023-05-07T08:30:37.861Z,60.66
2023-05-07T08:33:07.562Z,60.72
2023-05-07T08:35:35.828Z,61.26
2023-05-07T08:38:04.033Z,60.60
2023-05-07T08:40:38.576Z,60.54
2023-05-07T08:43:08.544Z,60.87
2023-05-07T08:45:37.383Z,60.29
2023-05-07T08:48:16.272Z,61.20
2023-05-07T08:50:44.580Z,61.59
2023-05-07T08:53:12.848Z,61.74
2023-05-07T08:55:41.223Z,62.32
2023-05-07T08:58:09.421Z,60.88
2023-05-07T09:00:40.593Z,60.40
2023-05-07T09:03:13.376Z,60.28
2023-05-07T09:05:41.754Z,59.53
2023-05-07T09:08:11.451Z,59.75
2023-05-07T09:10:39.691Z,59.90
2023-05-07T09:13:07.941Z,60.17
2023-05-07T09:15:36.181Z,60.13
2023-05-07T09:18:04.615Z,60.05
2023-05-07T09:20:34.262Z,59.84
2023-05-07T09:23:02.439Z,59.93
2023-05-07T09:25:32.761Z,60.45
2023-05-07T09:28:02.482Z,60.87
2023-05-07T09:30:31.806Z,60.56
2023-05-07T09:33:01.579Z,60.89
2023-05-07T09:35:30.621Z,59.54
2023-05-07T09:38:04.313Z,59.64
2023-05-07T09:40:33.535Z,59.81
2023-05-07T09:43:12.701Z,59.71
2023-05-07T09:45:41.175Z,59.50
2023-05-07T09:48:10.724Z,59.90
2023-05-07T09:50:50.979Z,59.67
2023-05-07T09:53:21.602Z,59.72
2023-05-07T09:55:50.369Z,58.94
2023-05-07T09:58:21.183Z,59.19
2023-05-07T10:00:51.691Z,59.45
2023-05-07T10:03:22.384Z,59.48
2023-05-07T10:05:52.977Z,59.55
2023-05-07T10:08:22.798Z,58.76
2023-05-07T10:10:51.892Z,58.23
2023-05-07T10:13:21.774Z,57.45
2023-05-07T10:15:51.158Z,57.54
2023-05-07T10:18:23.527Z,58.25
2023-05-07T10:20:56.447Z,58.28
2023-05-07T10:23:28.733Z,57.88
2023-05-07T10:26:01.125Z,58.51
2023-05-07T10:28:35.227Z,58.50
2023-05-07T10:31:25.304Z,57.90
2023-05-07T10:33:57.513Z,57.55
2023-05-07T10:36:27.421Z,57.64
2023-05-07T10:38:57.687Z,57.67
2023-05-07T10:41:25.988Z,56.91
2023-05-07T10:43:54.301Z,56.50
2023-05-07T10:46:24.594Z,56.91
2023-05-07T10:49:13.316Z,57.12
2023-05-07T10:51:42.035Z,57.71
2023-05-07T10:54:25.787Z,58.11
2023-05-07T10:56:54.014Z,57.94
2023-05-07T10:59:42.616Z,57.40
2023-05-07T11:02:12.333Z,57.31
2023-05-07T11:04:42.504Z,57.27
2023-05-07T11:07:31.813Z,57.24
2023-05-07T11:10:06.759Z,56.65
2023-05-07T11:12:57.665Z,56.27
2023-05-07T11:15:50.725Z,56.76
2023-05-07T11:18:20.553Z,57.28
2023-05-07T11:20:57.753Z,56.49
2023-05-07T11:24:12.214Z,56.90
2023-05-07T11:26:51.058Z,56.71
2023-05-07T11:29:22.920Z,55.38
2023-05-07T11:31:53.199Z,55.36
2023-05-07T11:34:26.398Z,54.91
2023-05-07T11:36:58.410Z,55.11
2023-05-07T11:39:32.462Z,54.33
2023-05-07T11:42:03.026Z,53.84
2023-05-07T11:44:44.302Z,53.83
2023-05-07T11:47:13.127Z,53.22
2023-05-07T11:49:41.647Z,53.10
2023-05-07T11:52:09.903Z,53.24
2023-05-07T11:54:39.880Z,53.67
2023-05-07T11:57:16.745Z,54.10
2023-05-07T11:59:45.460Z,55.14
2023-05-07T12:02:16.815Z,54.46
2023-05-07T12:04:45.536Z,54.74
2023-05-07T12:07:14.930Z,54.44
2023-05-07T12:09:43.413Z,55.03
2023-05-07T12:12:13.659Z,54.68
2023-05-07T12:14:42.860Z,54.00
2023-05-07T12:17:12.578Z,54.27
2023-05-07T12:19:44.172Z,53.51
2023-05-07T12:22:14.296Z,52.96
2023-05-07T12:24:47.561Z,51.94
2023-05-07T12:27:18.756Z,51.24
2023-05-07T12:29:48.354Z,51.86
2023-05-07T12:32:18.083Z,52.26
2023-05-07T12:34:47.091Z,52.95
2023-05-07T12:37:15.576Z,52.47
2023-05-07T12:39:49.281Z,53.42
2023-05-07T12:42:24.862Z,53.44
2023-05-07T12:44:53.243Z,52.73
2023-05-07T12:47:22.879Z,52.09
2023-05-07T12:49:51.263Z,51.67
2023-05-07T12:52:19.454Z,51.79
2023-05-07T12:54:47.508Z,50.92
2023-05-07T12:57:15.601Z,50.31
2023-05-07T12:59:45.150Z,49.14
2023-05-07T13:02:13.328Z,49.64
2023-05-07T13:04:41.417Z,50.20
2023-05-07T13:07:09.549Z,48.60
2023-05-07T13:09:38.074Z,48.91
2023-05-07T13:12:07.183Z,49.70
2023-05-07T13:14:35.326Z,50.11
2023-05-07T13:17:04.816Z,50.33
2023-05-07T13:19:32.935Z,50.43
2023-05-07T13:22:01.065Z,50.38
2023-05-07T13:24:29.252Z,50.68
2023-05-07T13:26:57.363Z,50.64
2023-05-07T13:29:29.645Z,49.82
2023-05-07T13:31:58.553Z,50.40
2023-05-07T13:34:28.101Z,49.57
2023-05-07T13:36:56.482Z,50.09
2023-05-07T13:39:24.602Z,50.14
2023-05-07T13:41:52.668Z,51.07
2023-05-07T13:44:21.735Z,51.38
2023-05-07T13:46:51.900Z,51.63
2023-05-07T13:49:20.076Z,52.17
2023-05-07T13:51:49.567Z,52.24
2023-05-07T13:54:17.893Z,52.02
2023-05-07T13:56:46.074Z,51.68
2023-05-07T13:59:15.329Z,51.19
2023-05-07T14:01:43.556Z,51.22
2023-05-07T14:04:12.037Z,50.59
2023-05-07T14:06:40.171Z,50.66
2023-05-07T14:09:09.682Z,51.26
2023-05-07T14:11:37.785Z,51.23
2023-05-07T14:14:05.978Z,51.49
2023-05-07T14:16:34.168Z,51.26
2023-05-07T14:19:02.418Z,51.58
2023-05-07T14:21:31.453Z,50.69
2023-05-07T14:24:00.878Z,50.97
2023-05-07T14:26:31.425Z,51.09
2023-05-07T14:28:59.633Z,50.76
2023-05-07T14:31:28.256Z,50.56
2023-05-07T14:33:58.843Z,50.93
2023-05-07T14:36:27.424Z,50.71
2023-05-07T14:38:56.005Z,50.57
2023-05-07T14:41:24.630Z,50.77
2023-05-07T14:43:54.143Z,50.85
2023-05-07T14:46:22.377Z,50.53
2023-05-07T14:48:50.438Z,50.44
2023-05-07T14:51:18.554Z,50.86
2023-05-07T14:53:46.931Z,51.29
2023-05-07T14:56:15.215Z,51.01
2023-05-07T14:58:43.393Z,50.86
2023-05-07T15:01:12.905Z,51.12
2023-05-07T15:03:41.944Z,51.71
2023-05-07T15:06:12.614Z,51.04
2023-05-07T15:08:40.721Z,51.50
2023-05-07T15:11:08.805Z,51.42
2023-05-07T15:13:36.927Z,51.13
2023-05-07T15:16:05.166Z,51.50
2023-05-07T15:18:34.644Z,51.49
2023-05-07T15:21:02.992Z,51.47
2023-05-07T15:23:31.185Z,51.50
2023-05-07T15:26:00.190Z,52.38
2023-05-07T15:28:29.033Z,52.37
2023-05-07T15:30:57.400Z,52.75
2023-05-07T15:33:26.370Z,52.67
2023-05-07T15:35:59.630Z,52.71
2023-05-07T15:38:28.272Z,52.96
2023-05-07T15:40:56.740Z,52.62
2023-05-07T15:43:26.654Z,52.83
2023-05-07T15:45:56.305Z,53.24
2023-05-07T15:48:24.603Z,53.34
2023-05-07T15:50:52.801Z,53.29
2023-05-07T15:53:22.264Z,53.38
2023-05-07T15:55:50.406Z,54.15
2023-05-07T15:58:20.240Z,54.56
2023-05-07T16:00:48.530Z,55.31
2023-05-07T16:03:16.890Z,54.51
2023-05-07T16:05:45.058Z,54.57
2023-05-07T16:08:13.212Z,54.62
2023-05-07T16:10:42.711Z,54.74
2023-05-07T16:13:11.407Z,54.65
2023-05-07T16:15:39.571Z,54.71
2023-05-07T16:18:07.789Z,54.81
2023-05-07T16:20:35.970Z,55.30
2023-05-07T16:23:04.233Z,55.71
2023-05-07T16:25:32.413Z,55.97
2023-05-07T16:28:01.959Z,56.13
2023-05-07T16:30:30.077Z,56.45
2023-05-07T16:32:58.243Z,56.74
2023-05-07T16:35:26.465Z,57.09
2023-05-07T16:37:54.828Z,57.29
2023-05-07T16:40:23.033Z,57.54
2023-05-07T16:42:52.405Z,57.34
2023-05-07T16:45:23.834Z,58.00
2023-05-07T16:47:52.319Z,58.44
2023-05-07T16:50:20.714Z,58.77
2023-05-07T16:52:48.881Z,59.17
2023-05-07T16:55:18.624Z,59.67
2023-05-07T16:57:46.814Z,60.49
2023-05-07T17:00:16.814Z,59.70
2023-05-07T17:02:46.871Z,60.32
2023-05-07T17:05:15.373Z,59.59
2023-05-07T17:07:43.952Z,59.95
2023-05-07T17:10:12.453Z,60.11
2023-05-07T17:12:40.986Z,60.16
2023-05-07T17:15:12.143Z,60.65
2023-05-07T17:17:42.030Z,60.89
2023-05-07T17:20:14.122Z,59.97
2023-05-07T17:22:42.557Z,60.13
2023-05-07T17:25:13.023Z,60.04
2023-05-07T17:27:42.985Z,60.21
2023-05-07T17:30:12.696Z,60.45
2023-05-07T17:32:41.480Z,60.42
2023-05-07T17:35:11.613Z,61.01
2023-05-07T17:37:40.057Z,61.17
2023-05-07T17:40:10.012Z,61.12
2023-05-07T17:42:38.287Z,61.45
2023-05-07T17:45:07.713Z,62.20
2023-05-07T17:47:36.186Z,62.27
2023-05-07T17:50:08.941Z,62.78
2023-05-07T17:52:38.842Z,62.84
2023-05-07T17:55:08.347Z,62.91
2023-05-07T17:57:36.912Z,63.65
2023-05-07T18:00:07.614Z,63.40
2023-05-07T18:02:35.867Z,63.30
2023-05-07T18:05:04.520Z,63.80
2023-05-07T18:07:32.625Z,63.59
2023-05-07T18:10:02.175Z,63.65
2023-05-07T18:12:30.294Z,63.76
2023-05-07T18:14:59.045Z,63.43
2023-05-07T18:17:27.863Z,64.50
2023-05-07T18:19:56.232Z,64.36
2023-05-07T18:22:24.401Z,64.10
2023-05-07T18:24:53.414Z,64.63
2023-05-07T18:27:23.061Z,64.28
2023-05-07T18:29:51.179Z,64.85
2023-05-07T18:32:19.407Z,64.95
2023-05-07T18:34:47.648Z,65.50
2023-05-07T18:37:15.889Z,66.46
2023-05-07T18:39:44.407Z,66.14
2023-05-07T18:42:13.521Z,66.82
2023-05-07T18:44:43.011Z,67.52
2023-05-07T18:47:11.197Z,66.82
2023-05-07T18:49:39.306Z,66.03
2023-05-07T18:52:07.526Z,65.05
2023-05-07T18:54:35.665Z,64.56
2023-05-07T18:57:03.827Z,64.92
2023-05-07T18:59:31.945Z,64.97
2023-05-07T19:02:01.514Z,65.63
2023-05-07T19:04:31.376Z,65.79
2023-05-07T19:06:59.528Z,65.33
2023-05-07T19:09:27.666Z,65.80
2023-05-07T19:11:56.894Z,66.03
2023-05-07T19:14:25.016Z,66.44
2023-05-07T19:16:53.137Z,66.87
2023-05-07T19:19:22.592Z,67.69
2023-05-07T19:21:50.782Z,66.82
2023-05-07T19:24:18.935Z,66.95
2023-05-07T19:26:47.047Z,67.16
2023-05-07T19:29:18.154Z,67.11
2023-05-07T19:31:47.139Z,67.10
2023-05-07T19:34:15.353Z,67.10
2023-05-07T19:36:44.910Z,66.66
2023-05-07T19:39:13.053Z,67.39
2023-05-07T19:41:41.834Z,66.77
2023-05-07T19:44:10.234Z,67.20
2023-05-07T19:46:40.396Z,67.20
2023-05-07T19:49:10.523Z,66.73
2023-05-07T19:51:40.279Z,66.69
2023-05-07T19:54:09.787Z,67.61
2023-05-07T19:56:39.868Z,67.52
2023-05-07T19:59:08.071Z,67.28
2023-05-07T20:01:36.286Z,67.34
2023-05-07T20:04:04.696Z,66.64
2023-05-07T20:06:32.930Z,66.94
2023-05-07T20:09:01.148Z,67.22
2023-05-07T20:11:31.770Z,66.70
2023-05-07T20:13:59.909Z,66.33
2023-05-07T20:16:28.066Z,66.72
2023-05-07T20:18:59.111Z,66.86
2023-05-07T20:21:27.636Z,66.67
2023-05-07T20:23:55.769Z,66.49
2023-05-07T20:26:23.981Z,66.47
2023-05-07T20:28:53.417Z,66.96
2023-05-07T20:31:21.611Z,67.04
2023-05-07T20:33:49.764Z,67.32
2023-05-07T20:36:18.093Z,66.83
2023-05-07T20:38:46.775Z,66.39
2023-05-07T20:41:14.888Z,67.02
2023-05-07T20:43:43.460Z,66.91
2023-05-07T20:46:13.180Z,66.95
2023-05-07T20:48:41.304Z,66.77
2023-05-07T20:51:10.667Z,66.51
2023-05-07T20:53:40.545Z,66.53
2023-05-07T20:56:08.663Z,66.76
2023-05-07T20:58:36.831Z,66.70
2023-05-07T21:01:06.658Z,66.60
2023-05-07T21:03:36.182Z,66.98
2023-05-07T21:06:04.432Z,67.31
2023-05-07T21:08:32.669Z,67.17
2023-05-07T21:11:00.852Z,67.61
2023-05-07T21:13:29.090Z,67.83
2023-05-07T21:15:57.214Z,67.47
2023-05-07T21:18:26.720Z,67.07
2023-05-07T21:20:56.252Z,67.80
2023-05-07T21:23:24.389Z,67.94
2023-05-07T21:25:52.538Z,67.47
2023-05-07T21:28:20.750Z,68.00
2023-05-07T21:30:48.834Z,67.87
2023-05-07T21:33:17.051Z,67.54
2023-05-07T21:35:45.437Z,67.57
2023-05-07T21:38:15.011Z,67.73
2023-05-07T21:40:43.114Z,67.84
2023-05-07T21:43:11.430Z,68.26
2023-05-07T21:45:41.017Z,68.26
2023-05-07T21:48:09.242Z,68.38
2023-05-07T21:50:37.363Z,68.47
2023-05-07T21:53:05.660Z,68.45
2023-05-07T21:55:35.185Z,68.75
2023-05-07T21:58:06.028Z,68.71
2023-05-07T22:00:34.828Z,68.48
2023-05-07T22:03:03.034Z,68.88
2023-05-07T22:05:31.268Z,69.05
2023-05-07T22:07:59.385Z,69.67
2023-05-07T22:10:27.640Z,69.22
2023-05-07T22:12:57.142Z,70.03
2023-05-07T22:15:25.590Z,69.71
2023-05-07T22:17:53.704Z,69.78
2023-05-07T22:20:21.835Z,69.52
2023-05-07T22:22:53.046Z,69.44
2023-05-07T22:25:21.809Z,70.05
2023-05-07T22:27:51.349Z,69.99
2023-05-07T22:30:20.897Z,69.43
2023-05-07T22:32:49.017Z,69.60
2023-05-07T22:35:17.077Z,69.25
2023-05-07T22:37:45.216Z,68.80
2023-05-07T22:40:14.061Z,68.89
2023-05-07T22:42:42.314Z,69.15
2023-05-07T22:45:12.127Z,69.21
2023-05-07T22:47:41.629Z,69.57
2023-05-07T22:50:10.567Z,69.29
2023-05-07T22:52:38.844Z,70.46
2023-05-07T22:55:08.535Z,69.50
2023-05-07T22:57:36.704Z,69.90
2023-05-07T23:00:06.341Z,69.87
2023-05-07T23:02:34.618Z,69.52
2023-05-07T23:05:04.383Z,69.46
2023-05-07T23:07:32.649Z,68.75
2023-05-07T23:10:00.716Z,69.25
2023-05-07T23:12:28.816Z,69.02
2023-05-07T23:14:56.922Z,69.48
2023-05-07T23:17:25.371Z,69.80
2023-05-07T23:19:53.663Z,69.31
2023-05-07T23:22:23.110Z,69.55
2023-05-07T23:24:51.272Z,69.67
2023-05-07T23:27:19.381Z,69.86
2023-05-07T23:29:47.737Z,69.48
2023-05-07T23:32:16.025Z,69.34
2023-05-07T23:34:44.160Z,69.31
2023-05-07T23:37:12.269Z,69.40
2023-05-07T23:39:41.764Z,69.78
2023-05-07T23:42:10.112Z,70.39
2023-05-07T23:44:38.298Z,69.58
2023-05-07T23:47:06.524Z,69.76
2023-05-07T23:49:34.741Z,69.86
2023-05-07T23:52:02.806Z,70.42
2023-05-07T23:54:30.933Z,70.01
2023-05-07T23:57:01.017Z,70.26
2023-05-07T23:59:29.589Z,70.11
